createdAt,value
2019-02-19T00:01:02.100Z,116.07
2019-02-19T00:03:31.614Z,114.63
2019-02-19T00:06:01.503Z,113.33
2019-02-19T00:08:31.327Z,113.20
2019-02-19T00:11:01.088Z,110.93
2019-02-19T00:13:30.384Z,111.13
2019-02-19T00:15:59.852Z,115.90
2019-02-19T00:18:29.919Z,114.77
2019-02-19T00:20:59.236Z,111.73
2019-02-19T00:23:29.944Z,116.13
2019-02-19T00:25:59.815Z,114.30
2019-02-19T00:28:29.325Z,119.83
2019-02-19T00:30:59.779Z,116.97
2019-02-19T00:33:29.017Z,113.70
2019-02-19T00:35:58.992Z,114.20
2019-02-19T00:38:29.098Z,115.43
2019-02-19T00:40:58.795Z,117.37
2019-02-19T00:43:30.530Z,115.27
2019-02-19T00:46:00.282Z,116.10
2019-02-19T00:48:29.973Z,114.97
2019-02-19T00:50:59.709Z,114.43
2019-02-19T00:53:30.321Z,117.00
2019-02-19T00:55:59.812Z,114.00
2019-02-19T00:58:29.340Z,109.43
2019-02-19T01:01:00.381Z,111.60
2019-02-19T01:03:30.159Z,112.17
2019-02-19T01:05:59.485Z,114.00
2019-02-19T01:08:29.705Z,112.43
2019-02-19T01:10:59.380Z,115.57
2019-02-19T01:13:29.109Z,115.70
2019-02-19T01:15:59.653Z,112.53
2019-02-19T01:18:29.629Z,116.53
2019-02-19T01:20:58.771Z,108.60
2019-02-19T01:23:29.084Z,107.97
2019-02-19T01:25:58.990Z,108.00
2019-02-19T01:28:28.744Z,104.67
2019-02-19T01:30:58.492Z,104.43
2019-02-19T01:33:28.291Z,104.67
2019-02-19T01:35:57.719Z,107.10
2019-02-19T01:38:28.524Z,104.67
2019-02-19T01:40:58.461Z,107.13
2019-02-19T01:43:27.678Z,104.03
2019-02-19T01:45:58.156Z,102.80
2019-02-19T01:48:27.297Z,97.50
2019-02-19T01:50:56.888Z,95.47
2019-02-19T01:53:27.872Z,93.57
2019-02-19T01:55:57.842Z,92.13
2019-02-19T01:58:26.966Z,94.37
2019-02-19T02:00:57.442Z,92.77
2019-02-19T02:06:22.769Z,98.13
2019-02-19T02:08:53.456Z,94.83
2019-02-19T02:11:22.811Z,99.80
2019-02-19T02:13:52.377Z,97.30
2019-02-19T02:16:22.250Z,98.83
2019-02-19T02:18:51.604Z,98.10
2019-02-19T02:21:20.833Z,94.97
2019-02-19T02:23:50.291Z,99.00
2019-02-19T02:26:20.277Z,97.73
2019-02-19T02:28:49.803Z,95.07
2019-02-19T02:31:19.515Z,96.83
2019-02-19T02:33:49.039Z,99.03
2019-02-19T02:36:18.805Z,99.30
2019-02-19T02:38:48.839Z,97.63
2019-02-19T02:41:18.197Z,98.07
2019-02-19T02:43:48.027Z,97.23
2019-02-19T02:46:17.428Z,95.63
2019-02-19T02:48:46.315Z,94.53
2019-02-19T02:51:16.274Z,97.80
2019-02-19T02:53:46.280Z,97.43
2019-02-19T02:56:16.374Z,101.93
2019-02-19T02:58:46.065Z,102.67
2019-02-19T03:01:15.672Z,99.10
2019-02-19T03:03:44.792Z,103.70
2019-02-19T03:06:42.039Z,107.53
2019-02-19T03:09:11.210Z,106.27
2019-02-19T03:11:41.038Z,108.97
2019-02-19T03:14:10.910Z,107.47
2019-02-19T03:16:40.291Z,108.50
2019-02-19T03:19:09.746Z,109.87
2019-02-19T03:21:39.681Z,113.03
2019-02-19T03:24:10.220Z,112.47
2019-02-19T03:26:39.849Z,114.07
2019-02-19T03:29:10.344Z,111.50
2019-02-19T03:31:39.842Z,110.00
2019-02-19T03:34:09.883Z,113.83
2019-02-19T03:36:39.348Z,110.97
2019-02-19T03:39:09.266Z,112.13
2019-02-19T03:41:38.789Z,113.57
2019-02-19T03:44:08.776Z,109.80
2019-02-19T03:46:38.703Z,115.77
2019-02-19T03:49:08.115Z,114.30
2019-02-19T03:51:37.731Z,114.60
2019-02-19T03:54:07.126Z,118.97
2019-02-19T03:56:36.886Z,116.20
2019-02-19T03:59:06.483Z,116.83
2019-02-19T04:01:35.791Z,114.07
2019-02-19T04:04:04.934Z,116.27
2019-02-19T04:06:34.868Z,117.80
2019-02-19T04:09:04.657Z,117.13
2019-02-19T04:11:34.141Z,117.30
2019-02-19T04:14:03.374Z,117.50
2019-02-19T04:16:33.083Z,115.43
2019-02-19T04:19:02.766Z,113.33
2019-02-19T04:21:32.377Z,118.13
2019-02-19T04:24:02.289Z,116.10
2019-02-19T04:26:32.155Z,113.87
2019-02-19T04:29:01.625Z,112.33
2019-02-19T04:31:31.840Z,117.20
2019-02-19T04:34:01.489Z,114.00
2019-02-19T04:36:30.666Z,116.40
2019-02-19T04:39:00.195Z,114.00
2019-02-19T04:41:30.289Z,108.53
2019-02-19T04:44:00.179Z,113.97
2019-02-19T04:46:31.783Z,116.27
2019-02-19T04:49:02.084Z,115.10
2019-02-19T04:51:31.719Z,111.43
2019-02-19T04:54:01.645Z,113.73
2019-02-19T04:56:31.422Z,112.67
2019-02-19T04:59:05.619Z,119.85
2019-02-19T05:01:36.489Z,111.47
2019-02-19T05:04:06.174Z,109.60
2019-02-19T05:06:36.233Z,103.50
2019-02-19T05:09:06.563Z,101.87
2019-02-19T05:11:36.462Z,105.63
2019-02-19T05:14:06.802Z,107.80
2019-02-19T05:16:40.748Z,106.23
2019-02-19T05:19:08.753Z,109.17
2019-02-19T05:21:38.971Z,108.83
2019-02-19T05:24:09.998Z,110.77
2019-02-19T05:26:39.848Z,109.30
2019-02-19T05:29:10.502Z,107.00
2019-02-19T05:31:40.742Z,107.07
2019-02-19T05:34:11.786Z,105.80
2019-02-19T05:36:42.208Z,104.37
2019-02-19T05:39:12.786Z,105.47
2019-02-19T05:41:43.077Z,107.87
2019-02-19T05:44:13.662Z,109.50
2019-02-19T05:46:49.729Z,110.53
2019-02-19T05:49:14.657Z,112.40
2019-02-19T05:51:44.367Z,114.10
2019-02-19T05:54:14.351Z,114.10
2019-02-19T05:56:44.469Z,111.87
2019-02-19T05:59:14.818Z,107.53
2019-02-19T06:01:44.988Z,108.37
2019-02-19T06:04:15.632Z,106.67
2019-02-19T06:06:45.828Z,104.17
2019-02-19T06:09:15.640Z,108.77
2019-02-19T06:11:45.723Z,103.60
2019-02-19T06:14:15.701Z,101.00
2019-02-19T06:16:45.832Z,99.30
2019-02-19T06:19:15.855Z,99.47
2019-02-19T06:21:45.833Z,95.53
2019-02-19T06:24:15.844Z,94.93
2019-02-19T06:26:47.177Z,92.97
2019-02-19T06:29:17.650Z,95.47
2019-02-19T06:31:47.747Z,92.87
2019-02-19T06:34:18.284Z,96.50
2019-02-19T06:36:47.688Z,99.13
2019-02-19T06:39:17.758Z,98.93
2019-02-19T06:41:47.490Z,102.00
2019-02-19T06:44:17.624Z,100.97
2019-02-19T06:46:48.140Z,95.17
2019-02-19T06:49:17.991Z,81.87
2019-02-19T06:51:47.976Z,73.53
2019-02-19T06:54:18.285Z,67.67
2019-02-19T06:56:48.061Z,65.37
2019-02-19T06:59:17.998Z,61.60
2019-02-19T07:02:06.004Z,61.03
2019-02-19T07:04:44.182Z,62.00
2019-02-19T07:07:15.194Z,62.40
2019-02-19T07:09:45.112Z,61.73
2019-02-19T07:12:15.277Z,68.80
2019-02-19T07:14:45.624Z,69.97
2019-02-19T07:17:16.199Z,66.33
2019-02-19T07:19:47.404Z,69.13
2019-02-19T07:22:20.168Z,83.70
2019-02-19T07:24:55.552Z,82.50
2019-02-19T07:27:25.829Z,81.47
2019-02-19T07:29:55.977Z,88.60
2019-02-19T07:32:29.385Z,89.03
2019-02-19T07:34:59.780Z,88.07
2019-02-19T07:37:30.187Z,83.40
2019-02-19T07:40:01.368Z,85.20
2019-02-19T07:42:31.800Z,78.87
2019-02-19T07:45:01.532Z,78.87
2019-02-19T07:47:31.832Z,79.83
2019-02-19T07:50:01.946Z,79.70
2019-02-19T07:52:31.827Z,80.53
2019-02-19T07:55:02.117Z,77.97
2019-02-19T07:57:32.856Z,79.47
2019-02-19T08:00:02.977Z,72.60
2019-02-19T08:02:32.903Z,71.70
2019-02-19T08:05:03.762Z,73.27
2019-02-19T08:07:33.649Z,73.97
2019-02-19T08:10:03.390Z,72.17
2019-02-19T08:12:33.543Z,72.07
2019-02-19T08:15:05.432Z,74.37
2019-02-19T08:17:36.056Z,77.27
2019-02-19T08:20:14.925Z,81.10
2019-02-19T08:22:37.878Z,80.53
2019-02-19T08:25:11.257Z,79.07
2019-02-19T08:27:41.154Z,79.63
2019-02-19T08:30:12.318Z,79.40
2019-02-19T08:32:42.481Z,85.20
2019-02-19T08:35:12.860Z,82.37
2019-02-19T08:37:43.179Z,86.07
2019-02-19T08:40:13.445Z,84.93
2019-02-19T08:42:42.925Z,79.00
2019-02-19T08:45:13.149Z,76.33
2019-02-19T08:47:43.130Z,79.70
2019-02-19T08:50:13.715Z,81.17
2019-02-19T08:52:43.222Z,80.40
2019-02-19T08:55:13.666Z,79.43
2019-02-19T08:57:43.758Z,76.70
2019-02-19T09:00:13.953Z,84.93
2019-02-19T09:02:43.553Z,79.73
2019-02-19T09:05:13.609Z,76.60
2019-02-19T09:07:43.225Z,80.00
2019-02-19T09:10:13.449Z,84.17
2019-02-19T09:12:43.540Z,82.23
2019-02-19T09:15:13.577Z,80.67
2019-02-19T09:18:04.442Z,81.67
2019-02-19T09:20:34.699Z,82.43
2019-02-19T09:23:05.113Z,83.03
2019-02-19T09:25:34.562Z,85.10
2019-02-19T09:28:04.557Z,94.83
2019-02-19T09:30:34.270Z,98.87
2019-02-19T09:33:04.551Z,92.77
2019-02-19T09:35:34.493Z,101.93
2019-02-19T09:38:04.835Z,102.83
2019-02-19T09:40:34.669Z,112.90
2019-02-19T09:43:04.602Z,113.33
2019-02-19T09:45:35.211Z,124.17
2019-02-19T09:48:05.180Z,120.47
2019-02-19T09:50:35.067Z,126.47
2019-02-19T09:53:04.612Z,132.13
2019-02-19T09:55:34.937Z,130.27
2019-02-19T09:58:11.223Z,129.73
2019-02-19T10:00:41.899Z,111.60
2019-02-19T10:03:11.804Z,110.77
2019-02-19T10:05:41.824Z,120.53
2019-02-19T10:08:11.704Z,117.40
2019-02-19T10:10:41.970Z,125.38
2019-02-19T10:13:12.709Z,115.73
2019-02-19T10:15:42.844Z,110.97
2019-02-19T10:18:12.805Z,114.90
2019-02-19T10:20:42.944Z,104.60
2019-02-19T10:23:13.774Z,113.13
2019-02-19T10:25:44.671Z,111.13
2019-02-19T10:28:15.079Z,112.80
2019-02-19T10:30:45.875Z,105.40
2019-02-19T10:33:15.732Z,109.13
2019-02-19T10:35:45.356Z,107.43
2019-02-19T10:38:15.353Z,101.60
2019-02-19T10:40:45.760Z,113.00
2019-02-19T10:43:15.410Z,104.03
2019-02-19T10:45:45.481Z,110.00
2019-02-19T10:48:18.957Z,115.07
2019-02-19T10:50:47.332Z,104.63
2019-02-19T10:53:17.836Z,111.60
2019-02-19T10:55:47.720Z,118.00
2019-02-19T10:58:23.045Z,113.37
2019-02-19T11:00:49.184Z,115.10
2019-02-19T11:03:20.520Z,115.80
2019-02-19T11:05:50.242Z,114.20
2019-02-19T11:08:20.427Z,116.53
2019-02-19T11:10:50.875Z,112.20
2019-02-19T11:13:20.575Z,118.87
2019-02-19T11:15:51.042Z,117.27
2019-02-19T11:18:41.412Z,112.70
2019-02-19T11:21:19.249Z,107.40
2019-02-19T11:23:43.585Z,123.57
2019-02-19T11:26:14.307Z,119.93
2019-02-19T11:28:44.224Z,120.70
2019-02-19T11:31:14.523Z,112.43
2019-02-19T11:33:44.349Z,114.87
2019-02-19T11:36:14.872Z,110.23
2019-02-19T11:38:44.449Z,111.27
2019-02-19T11:41:14.620Z,111.10
2019-02-19T11:43:44.272Z,113.63
2019-02-19T11:46:15.034Z,113.80
2019-02-19T11:48:45.197Z,105.80
2019-02-19T11:51:15.356Z,113.07
2019-02-19T11:53:46.003Z,111.93
2019-02-19T11:56:16.848Z,118.83
2019-02-19T11:58:46.868Z,116.63
2019-02-19T12:01:16.340Z,117.33
2019-02-19T12:03:46.281Z,115.77
2019-02-19T12:06:16.582Z,120.73
2019-02-19T12:08:46.718Z,122.20
2019-02-19T12:11:16.507Z,120.40
2019-02-19T12:13:46.600Z,119.33
2019-02-19T12:16:16.295Z,115.37
2019-02-19T12:18:46.581Z,114.00
2019-02-19T12:21:17.102Z,118.93
2019-02-19T12:23:46.687Z,120.37
2019-02-19T12:26:16.971Z,125.13
2019-02-19T12:28:46.836Z,123.17
2019-02-19T12:31:16.503Z,119.70
2019-02-19T12:33:46.572Z,128.43
2019-02-19T12:36:16.858Z,122.50
2019-02-19T12:38:47.422Z,125.03
2019-02-19T12:41:17.406Z,119.60
2019-02-19T12:43:47.745Z,128.97
2019-02-19T12:46:18.376Z,114.60
2019-02-19T12:48:54.337Z,108.67
2019-02-19T12:51:26.278Z,115.37
2019-02-19T12:53:52.967Z,108.80
2019-02-19T12:56:25.426Z,126.00
2019-02-19T12:58:55.608Z,115.20
2019-02-19T13:01:25.953Z,125.50
2019-02-19T13:03:56.670Z,113.17
2019-02-19T13:06:26.362Z,132.73
2019-02-19T13:08:56.522Z,130.97
2019-02-19T13:11:26.766Z,127.37
2019-02-19T13:13:57.422Z,139.87
2019-02-19T13:16:27.878Z,130.10
2019-02-19T13:19:03.431Z,122.73
2019-02-19T13:21:29.815Z,129.33
2019-02-19T13:24:01.370Z,134.00
2019-02-19T13:26:32.179Z,124.80
2019-02-19T13:29:02.626Z,122.60
2019-02-19T13:31:32.699Z,128.13
2019-02-19T13:34:02.577Z,134.00
2019-02-19T13:36:32.545Z,119.57
2019-02-19T13:39:04.703Z,137.20
2019-02-19T13:41:37.059Z,119.53
2019-02-19T13:44:07.723Z,126.23
2019-02-19T13:46:38.067Z,130.83
2019-02-19T13:49:12.305Z,128.80
2019-02-19T13:51:39.549Z,117.03
2019-02-19T13:54:14.442Z,116.23
2019-02-19T13:56:44.300Z,120.03
2019-02-19T13:59:16.351Z,121.53
2019-02-19T14:01:46.575Z,124.50
2019-02-19T14:04:16.870Z,121.67
2019-02-19T14:06:47.345Z,122.77
2019-02-19T14:09:17.600Z,126.00
2019-02-19T14:11:47.940Z,126.93
2019-02-19T14:14:38.661Z,130.10
2019-02-19T14:17:13.143Z,126.33
2019-02-19T14:19:53.824Z,125.07
2019-02-19T14:22:58.477Z,126.33
2019-02-19T14:25:37.679Z,126.37
2019-02-19T14:28:25.825Z,124.77
2019-02-19T14:31:16.421Z,122.93
2019-02-19T14:34:12.252Z,123.53
2019-02-19T14:37:04.588Z,125.03
2019-02-19T14:39:53.957Z,121.23
2019-02-19T14:42:49.778Z,123.23
2019-02-19T14:45:48.467Z,119.13
2019-02-19T14:48:38.064Z,114.47
2019-02-19T14:51:29.094Z,118.20
2019-02-19T14:54:21.282Z,118.60
2019-02-19T14:57:08.210Z,120.40
2019-02-19T15:00:07.298Z,122.67
2019-02-19T15:02:53.287Z,118.47
2019-02-19T15:05:41.337Z,116.77
2019-02-19T15:08:29.910Z,118.80
2019-02-19T15:11:19.875Z,121.43
2019-02-19T15:14:08.108Z,121.03
2019-02-19T15:17:04.757Z,119.57
2019-02-19T15:19:45.530Z,118.63
2019-02-19T15:22:33.680Z,119.43
2019-02-19T15:25:24.669Z,123.50
2019-02-19T15:28:07.801Z,119.63
2019-02-19T15:31:07.404Z,118.77
2019-02-19T15:34:02.498Z,117.90
2019-02-19T15:36:58.333Z,119.30
2019-02-19T15:39:46.469Z,124.33
2019-02-19T15:42:33.792Z,118.90
2019-02-19T15:45:23.882Z,114.63
2019-02-19T15:48:20.521Z,117.97
2019-02-19T15:51:18.902Z,119.50
2019-02-19T15:54:06.109Z,134.63
2019-02-19T15:57:03.672Z,120.33
2019-02-19T16:00:02.459Z,122.37
2019-02-19T16:02:53.263Z,123.20
2019-02-19T16:05:41.321Z,123.93
2019-02-19T16:08:37.023Z,121.80
2019-02-19T16:11:12.568Z,117.90
2019-02-19T16:13:59.376Z,123.50
2019-02-19T16:16:54.278Z,124.03
2019-02-19T16:19:32.610Z,122.10
2019-02-19T16:22:30.869Z,121.77
2019-02-19T16:25:19.008Z,122.30
2019-02-19T16:28:22.349Z,124.37
2019-02-19T16:31:00.721Z,122.80
2019-02-19T16:33:38.012Z,126.07
2019-02-19T16:36:28.709Z,125.23
2019-02-19T16:39:15.230Z,127.13
2019-02-19T16:42:03.257Z,127.43
2019-02-19T16:44:43.402Z,134.40
2019-02-19T16:47:47.926Z,128.70
2019-02-19T16:50:35.983Z,131.03
2019-02-19T16:53:21.147Z,127.33
2019-02-19T16:56:15.322Z,128.50
2019-02-19T16:59:09.577Z,124.73
2019-02-19T17:02:00.101Z,126.23
2019-02-19T17:04:44.352Z,124.70
2019-02-19T17:07:18.875Z,128.77
2019-02-19T17:10:06.920Z,133.07
2019-02-19T17:12:48.268Z,141.90
2019-02-19T17:15:35.824Z,135.63
2019-02-19T17:18:31.850Z,130.70
2019-02-19T17:21:22.875Z,125.17
2019-02-19T17:24:04.342Z,124.23
2019-02-19T17:26:43.678Z,127.97
2019-02-19T17:29:30.895Z,125.70
2019-02-19T17:32:24.978Z,128.10
2019-02-19T17:35:05.033Z,121.03
2019-02-19T17:37:51.640Z,126.40
2019-02-19T17:40:38.142Z,126.27
2019-02-19T17:43:33.568Z,126.07
2019-02-19T17:46:27.527Z,126.83
2019-02-19T17:49:18.535Z,128.67
2019-02-19T17:52:05.560Z,129.40
2019-02-19T17:54:47.337Z,130.30
2019-02-19T17:57:38.170Z,126.73
2019-02-19T18:00:36.833Z,129.83
2019-02-19T18:03:22.416Z,132.13
2019-02-19T18:06:13.515Z,128.60
2019-02-19T18:09:00.650Z,132.10
2019-02-19T18:11:54.930Z,129.67
2019-02-19T18:14:49.120Z,129.27
2019-02-19T18:17:35.515Z,129.90
2019-02-19T18:20:05.664Z,146.43
2019-02-19T18:22:34.381Z,132.00
2019-02-19T18:25:03.487Z,129.33
2019-02-19T18:27:31.999Z,124.50
2019-02-19T18:30:00.885Z,128.70
2019-02-19T18:32:30.084Z,128.30
2019-02-19T18:34:58.929Z,127.80
2019-02-19T18:37:28.085Z,124.80
2019-02-19T18:39:57.057Z,125.63
2019-02-19T18:42:26.066Z,128.23
2019-02-19T18:44:56.770Z,129.10
2019-02-19T18:47:25.437Z,127.97
2019-02-19T18:49:54.114Z,129.80
2019-02-19T18:52:22.940Z,129.17
2019-02-19T18:54:51.731Z,135.67
2019-02-19T18:57:20.743Z,135.23
2019-02-19T18:59:49.520Z,133.93
2019-02-19T19:02:18.416Z,136.50
2019-02-19T19:04:47.700Z,136.87
2019-02-19T19:07:16.588Z,138.20
2019-02-19T19:09:45.581Z,138.10
2019-02-19T19:12:14.371Z,135.90
2019-02-19T19:14:43.220Z,134.13
2019-02-19T19:17:12.353Z,141.07
2019-02-19T19:19:41.322Z,146.10
2019-02-19T19:22:10.203Z,148.67
2019-02-19T19:24:39.125Z,151.37
2019-02-19T19:27:08.551Z,142.60
2019-02-19T19:29:39.073Z,139.57
2019-02-19T19:32:08.805Z,140.90
2019-02-19T19:34:39.158Z,145.97
2019-02-19T19:37:09.332Z,142.83
2019-02-19T19:39:41.894Z,148.37
2019-02-19T19:42:11.925Z,145.80
2019-02-19T19:44:42.005Z,141.73
2019-02-19T19:47:13.596Z,142.97
2019-02-19T19:49:45.066Z,148.60
2019-02-19T19:52:15.399Z,148.43
2019-02-19T19:54:45.601Z,146.13
2019-02-19T19:57:15.932Z,143.30
2019-02-19T19:59:45.634Z,142.53
2019-02-19T20:02:18.404Z,143.33
2019-02-19T20:04:47.639Z,141.60
2019-02-19T20:07:17.392Z,145.23
2019-02-19T20:09:46.471Z,147.60
2019-02-19T20:12:16.397Z,144.27
2019-02-19T20:14:46.000Z,145.40
2019-02-19T20:17:15.768Z,145.93
2019-02-19T20:19:45.499Z,143.67
2019-02-19T20:22:15.883Z,143.63
2019-02-19T20:24:45.877Z,143.37
2019-02-19T20:27:15.826Z,143.37
2019-02-19T20:29:45.754Z,145.67
2019-02-19T20:32:16.459Z,141.80
2019-02-19T20:34:46.456Z,145.00
2019-02-19T20:37:16.152Z,147.20
2019-02-19T20:39:47.342Z,152.73
2019-02-19T20:42:17.024Z,155.03
2019-02-19T20:44:47.192Z,161.00
2019-02-19T20:47:16.863Z,170.50
2019-02-19T20:49:46.806Z,160.60
2019-02-19T20:52:16.413Z,151.27
2019-02-19T20:54:46.393Z,164.67
2019-02-19T20:57:16.471Z,162.93
2019-02-19T20:59:46.405Z,159.73
2019-02-19T21:02:16.422Z,156.13
2019-02-19T21:04:46.587Z,155.87
2019-02-19T21:07:16.321Z,160.07
2019-02-19T21:09:46.916Z,150.33
2019-02-19T21:12:16.726Z,155.97
2019-02-19T21:14:47.068Z,151.87
2019-02-19T21:17:15.886Z,149.80
2019-02-19T21:19:44.750Z,148.80
2019-02-19T21:22:13.646Z,150.80
2019-02-19T21:24:43.490Z,144.80
2019-02-19T21:27:13.051Z,151.10
2019-02-19T21:29:43.130Z,148.83
2019-02-19T21:32:12.873Z,153.50
2019-02-19T21:34:42.963Z,156.27
2019-02-19T21:37:11.840Z,158.77
2019-02-19T21:39:40.904Z,147.47
2019-02-19T21:42:09.825Z,152.70
2019-02-19T21:44:40.031Z,154.13
2019-02-19T21:47:08.597Z,153.10
2019-02-19T21:49:37.525Z,147.97
2019-02-19T21:52:06.519Z,154.43
2019-02-19T21:54:35.298Z,148.70
2019-02-19T21:57:04.252Z,147.20
2019-02-19T21:59:32.973Z,159.83
2019-02-19T22:02:02.070Z,150.30
2019-02-19T22:04:32.087Z,147.07
2019-02-19T22:07:01.188Z,153.17
2019-02-19T22:09:31.157Z,149.90
2019-02-19T22:12:00.045Z,155.90
2019-02-19T22:14:29.047Z,150.47
2019-02-19T22:16:59.197Z,150.67
2019-02-19T22:19:28.190Z,156.60
2019-02-19T22:22:07.339Z,145.80
2019-02-19T22:24:36.995Z,146.17
2019-02-19T22:27:06.301Z,150.97
2019-02-19T22:29:35.334Z,155.03
2019-02-19T22:32:04.314Z,175.97
2019-02-19T22:34:33.103Z,156.77
2019-02-19T22:37:01.992Z,150.50
2019-02-19T22:39:30.883Z,153.17
2019-02-19T22:41:59.669Z,151.27
2019-02-19T22:44:28.460Z,153.00
2019-02-19T22:46:57.554Z,156.23
2019-02-19T22:49:26.442Z,153.93
2019-02-19T22:51:55.436Z,152.93
2019-02-19T22:54:35.421Z,151.70
2019-02-19T22:57:04.381Z,155.03
2019-02-19T22:59:33.061Z,160.13
2019-02-19T23:02:30.215Z,152.23
2019-02-19T23:04:59.003Z,155.00
2019-02-19T23:07:27.891Z,154.00
2019-02-19T23:09:56.784Z,167.70
2019-02-19T23:12:25.542Z,167.23
2019-02-19T23:14:54.357Z,172.17
2019-02-19T23:17:23.168Z,166.37
2019-02-19T23:19:52.034Z,169.77
2019-02-19T23:22:21.853Z,166.40
2019-02-19T23:24:50.942Z,170.13
2019-02-19T23:27:19.851Z,168.90
2019-02-19T23:29:48.928Z,172.10
2019-02-19T23:32:17.820Z,164.00
2019-02-19T23:34:48.419Z,164.57
2019-02-19T23:37:19.446Z,166.13
2019-02-19T23:39:48.180Z,157.80
2019-02-19T23:42:17.062Z,156.70
2019-02-19T23:44:45.950Z,160.13
2019-02-19T23:47:14.806Z,158.87
2019-02-19T23:49:43.596Z,159.63
2019-02-19T23:52:12.416Z,158.93
2019-02-19T23:54:41.022Z,162.03
2019-02-19T23:57:09.787Z,164.27
2019-02-19T23:59:38.694Z,157.40
